sensor_id;sensor_type;location;lat;lon;timestamp;pressure;altitude;pressure_sealevel;temperature
53512;BMP280;39392;52.832;13.816;2022-08-01T00:00:01;100994.28;;;24.75
53512;BMP280;39392;52.832;13.816;2022-08-01T00:02:29;101010.50;;;24.76
53512;BMP280;39392;52.832;13.816;2022-08-01T00:04:57;101006.91;;;24.76
53512;BMP280;39392;52.832;13.816;2022-08-01T00:07:23;101004.19;;;24.76
53512;BMP280;39392;52.832;13.816;2022-08-01T00:09:50;101012.41;;;24.76
53512;BMP280;39392;52.832;13.816;2022-08-01T00:12:16;101007.75;;;24.76
53512;BMP280;39392;52.832;13.816;2022-08-01T00:14:43;101001.63;;;24.74
53512;BMP280;39392;52.832;13.816;2022-08-01T00:17:09;101003.53;;;24.74
53512;BMP280;39392;52.832;13.816;2022-08-01T00:19:36;101001.63;;;24.74
53512;BMP280;39392;52.832;13.816;2022-08-01T00:22:02;101009.84;;;24.74
53512;BMP280;39392;52.832;13.816;2022-08-01T00:24:29;101005.41;;;24.73
53512;BMP280;39392;52.832;13.816;2022-08-01T00:26:56;101006.91;;;24.76
53512;BMP280;39392;52.832;13.816;2022-08-01T00:29:22;101007.97;;;24.75
53512;BMP280;39392;52.832;13.816;2022-08-01T00:32:09;101003.53;;;24.74
53512;BMP280;39392;52.832;13.816;2022-08-01T00:34:35;101009.00;;;24.74
53512;BMP280;39392;52.832;13.816;2022-08-01T00:37:02;101009.00;;;24.74
53512;BMP280;39392;52.832;13.816;2022-08-01T00:39:30;101005.22;;;24.75
53512;BMP280;39392;52.832;13.816;2022-08-01T00:41:59;101006.47;;;24.72
53512;BMP280;39392;52.832;13.816;2022-08-01T00:44:26;101008.38;;;24.72
53512;BMP280;39392;52.832;13.816;2022-08-01T00:46:53;101008.38;;;24.72
53512;BMP280;39392;52.832;13.816;2022-08-01T00:49:19;101013.88;;;24.72
53512;BMP280;39392;52.832;13.816;2022-08-01T00:51:46;101006.47;;;24.72
53512;BMP280;39392;52.832;13.816;2022-08-01T00:54:12;101013.66;;;24.73
53512;BMP280;39392;52.832;13.816;2022-08-01T00:56:42;101020.19;;;24.72
53512;BMP280;39392;52.832;13.816;2022-08-01T00:59:08;101013.88;;;24.72
53512;BMP280;39392;52.832;13.816;2022-08-01T01:01:35;101017.44;;;24.72
53512;BMP280;39392;52.832;13.816;2022-08-01T01:04:05;101019.34;;;24.72
53512;BMP280;39392;52.832;13.816;2022-08-01T01:11:36;101013.03;;;24.71
53512;BMP280;39392;52.832;13.816;2022-08-01T01:14:05;101011.13;;;24.72
53512;BMP280;39392;52.832;13.816;2022-08-01T01:16:36;101017.84;;;24.69
53512;BMP280;39392;52.832;13.816;2022-08-01T01:19:03;101012.38;;;24.69
53512;BMP280;39392;52.832;13.816;2022-08-01T01:21:35;101008.56;;;24.70
53512;BMP280;39392;52.832;13.816;2022-08-01T01:24:17;101006.88;;;24.69
53512;BMP280;39392;52.832;13.816;2022-08-01T01:34:56;100999.31;;;24.71
53512;BMP280;39392;52.832;13.816;2022-08-01T01:37:23;100996.56;;;24.71
53512;BMP280;39392;52.832;13.816;2022-08-01T01:39:51;100994.69;;;24.72
53512;BMP280;39392;52.832;13.816;2022-08-01T01:42:19;101000.16;;;24.72
53512;BMP280;39392;52.832;13.816;2022-08-01T01:44:47;100990.03;;;24.72
53512;BMP280;39392;52.832;13.816;2022-08-01T01:47:14;100988.97;;;24.73
53512;BMP280;39392;52.832;13.816;2022-08-01T01:49:43;100990.66;;;24.74
53512;BMP280;39392;52.832;13.816;2022-08-01T01:52:12;100995.28;;;24.74
53512;BMP280;39392;52.832;13.816;2022-08-01T01:54:40;100990.88;;;24.73
53512;BMP280;39392;52.832;13.816;2022-08-01T01:57:08;100990.66;;;24.74
53512;BMP280;39392;52.832;13.816;2022-08-01T01:59:36;100993.41;;;24.74
53512;BMP280;39392;52.832;13.816;2022-08-01T02:02:05;100986.06;;;24.75
53512;BMP280;39392;52.832;13.816;2022-08-01T02:04:33;100978.84;;;24.74
53512;BMP280;39392;52.832;13.816;2022-08-01T02:07:02;100970.84;;;24.72
53512;BMP280;39392;52.832;13.816;2022-08-01T02:09:29;100981.59;;;24.74
53512;BMP280;39392;52.832;13.816;2022-08-01T02:11:57;100981.59;;;24.74
53512;BMP280;39392;52.832;13.816;2022-08-01T02:14:34;100983.50;;;24.73
53512;BMP280;39392;52.832;13.816;2022-08-01T02:17:01;100972.75;;;24.72
53512;BMP280;39392;52.832;13.816;2022-08-01T02:19:30;100978.84;;;24.74
53512;BMP280;39392;52.832;13.816;2022-08-01T02:22:03;100975.50;;;24.72
53512;BMP280;39392;52.832;13.816;2022-08-01T02:24:39;100975.69;;;24.70
53512;BMP280;39392;52.832;13.816;2022-08-01T02:27:17;100975.50;;;24.72
53512;BMP280;39392;52.832;13.816;2022-08-01T02:29:50;100969.16;;;24.71
53512;BMP280;39392;52.832;13.816;2022-08-01T02:32:36;100970.19;;;24.70
53512;BMP280;39392;52.832;13.816;2022-08-01T02:35:04;100966.63;;;24.70
53512;BMP280;39392;52.832;13.816;2022-08-01T02:37:34;100964.72;;;24.70
53512;BMP280;39392;52.832;13.816;2022-08-01T02:40:07;100966.63;;;24.70
53512;BMP280;39392;52.832;13.816;2022-08-01T02:42:39;100970.41;;;24.69
53512;BMP280;39392;52.832;13.816;2022-08-01T02:45:09;100966.00;;;24.68
53512;BMP280;39392;52.832;13.816;2022-08-01T02:47:37;100972.31;;;24.68
53512;BMP280;39392;52.832;13.816;2022-08-01T02:50:04;100968.75;;;24.68
53512;BMP280;39392;52.832;13.816;2022-08-01T02:52:31;100976.97;;;24.68
53512;BMP280;39392;52.832;13.816;2022-08-01T02:54:58;100973.16;;;24.69
53512;BMP280;39392;52.832;13.816;2022-08-01T02:57:26;100976.13;;;24.67
53512;BMP280;39392;52.832;13.816;2022-08-01T03:00:15;100978.63;;;24.69
53512;BMP280;39392;52.832;13.816;2022-08-01T03:02:41;100977.81;;;24.68
53512;BMP280;39392;52.832;13.816;2022-08-01T03:05:10;100987.69;;;24.69
53512;BMP280;39392;52.832;13.816;2022-08-01T03:07:38;100984.97;;;24.69
53512;BMP280;39392;52.832;13.816;2022-08-01T03:10:06;100982.22;;;24.69
53512;BMP280;39392;52.832;13.816;2022-08-01T03:12:34;100991.50;;;24.68
53512;BMP280;39392;52.832;13.816;2022-08-01T03:15:02;100996.75;;;24.70
53512;BMP280;39392;52.832;13.816;2022-08-01T03:17:30;100999.50;;;24.70
53512;BMP280;39392;52.832;13.816;2022-08-01T03:19:58;100995.94;;;24.69
53512;BMP280;39392;52.832;13.816;2022-08-01T03:22:26;100998.66;;;24.69
53512;BMP280;39392;52.832;13.816;2022-08-01T03:24:54;101002.25;;;24.70
53512;BMP280;39392;52.832;13.816;2022-08-01T03:27:23;101000.34;;;24.70
53512;BMP280;39392;52.832;13.816;2022-08-01T03:29:50;101005.63;;;24.72
53512;BMP280;39392;52.832;13.816;2022-08-01T03:32:18;101007.31;;;24.73
53512;BMP280;39392;52.832;13.816;2022-08-01T03:34:45;101000.16;;;24.72
53512;BMP280;39392;52.832;13.816;2022-08-01T03:37:23;101004.34;;;24.74
53512;BMP280;39392;52.832;13.816;2022-08-01T03:42:56;101005.63;;;24.72
53512;BMP280;39392;52.832;13.816;2022-08-01T03:45:30;101010.91;;;24.73
53512;BMP280;39392;52.832;13.816;2022-08-01T03:47:59;101011.13;;;24.72
53512;BMP280;39392;52.832;13.816;2022-08-01T03:50:27;101009.44;;;24.71
53512;BMP280;39392;52.832;13.816;2022-08-01T03:52:55;101010.28;;;24.71
53512;BMP280;39392;52.832;13.816;2022-08-01T03:55:23;101011.13;;;24.72
53512;BMP280;39392;52.832;13.816;2022-08-01T03:57:50;101008.38;;;24.72
53512;BMP280;39392;52.832;13.816;2022-08-01T04:00:17;101009.44;;;24.71
53512;BMP280;39392;52.832;13.816;2022-08-01T04:02:47;101010.28;;;24.71
53512;BMP280;39392;52.832;13.816;2022-08-01T04:05:15;101011.31;;;24.70
53512;BMP280;39392;52.832;13.816;2022-08-01T04:07:45;101010.28;;;24.71
53512;BMP280;39392;52.832;13.816;2022-08-01T04:10:12;101006.69;;;24.71
53512;BMP280;39392;52.832;13.816;2022-08-01T04:12:39;101012.19;;;24.71
53512;BMP280;39392;52.832;13.816;2022-08-01T04:15:05;101017.66;;;24.71
53512;BMP280;39392;52.832;13.816;2022-08-01T04:17:32;101015.75;;;24.71
53512;BMP280;39392;52.832;13.816;2022-08-01T04:19:58;101013.88;;;24.72
53512;BMP280;39392;52.832;13.816;2022-08-01T04:22:25;101013.03;;;24.71
53512;BMP280;39392;52.832;13.816;2022-08-01T04:24:53;101011.13;;;24.72
53512;BMP280;39392;52.832;13.816;2022-08-01T04:27:27;101009.44;;;24.71
53512;BMP280;39392;52.832;13.816;2022-08-01T04:30:20;101017.66;;;24.71
53512;BMP280;39392;52.832;13.816;2022-08-01T04:32:48;101015.75;;;24.71
53512;BMP280;39392;52.832;13.816;2022-08-01T04:35:16;101015.75;;;24.71
53512;BMP280;39392;52.832;13.816;2022-08-01T04:38:04;101010.28;;;24.71
53512;BMP280;39392;52.832;13.816;2022-08-01T04:40:31;101013.03;;;24.71
53512;BMP280;39392;52.832;13.816;2022-08-01T04:42:58;101022.28;;;24.70
53512;BMP280;39392;52.832;13.816;2022-08-01T04:45:25;101017.66;;;24.71
53512;BMP280;39392;52.832;13.816;2022-08-01T04:47:52;101016.78;;;24.70
53512;BMP280;39392;52.832;13.816;2022-08-01T04:50:19;101018.69;;;24.70
53512;BMP280;39392;52.832;13.816;2022-08-01T04:52:47;101009.63;;;24.69
53512;BMP280;39392;52.832;13.816;2022-08-01T04:55:14;101017.66;;;24.71
53512;BMP280;39392;52.832;13.816;2022-08-01T04:57:44;101018.69;;;24.70
53512;BMP280;39392;52.832;13.816;2022-08-01T05:00:11;101025.00;;;24.70
53512;BMP280;39392;52.832;13.816;2022-08-01T05:02:38;101017.66;;;24.71
53512;BMP280;39392;52.832;13.816;2022-08-01T05:05:04;101024.19;;;24.70
53512;BMP280;39392;52.832;13.816;2022-08-01T05:07:34;101020.41;;;24.71
53512;BMP280;39392;52.832;13.816;2022-08-01T05:10:10;101023.34;;;24.69
53512;BMP280;39392;52.832;13.816;2022-08-01T05:12:37;101026.91;;;24.70
53512;BMP280;39392;52.832;13.816;2022-08-01T05:15:03;101033.25;;;24.70
53512;BMP280;39392;52.832;13.816;2022-08-01T05:17:30;101025.00;;;24.70
53512;BMP280;39392;52.832;13.816;2022-08-01T05:19:57;101031.38;;;24.71
53512;BMP280;39392;52.832;13.816;2022-08-01T05:22:24;101034.09;;;24.71
53512;BMP280;39392;52.832;13.816;2022-08-01T05:24:51;101034.09;;;24.71
53512;BMP280;39392;52.832;13.816;2022-08-01T05:27:19;101038.53;;;24.72
53512;BMP280;39392;52.832;13.816;2022-08-01T05:29:46;101033.06;;;24.72
53512;BMP280;39392;52.832;13.816;2022-08-01T05:32:13;101041.28;;;24.72
53512;BMP280;39392;52.832;13.816;2022-08-01T05:34:39;101043.19;;;24.71
53512;BMP280;39392;52.832;13.816;2022-08-01T05:37:06;101032.22;;;24.71
53512;BMP280;39392;52.832;13.816;2022-08-01T05:39:33;101038.53;;;24.72
53512;BMP280;39392;52.832;13.816;2022-08-01T05:41:59;101040.44;;;24.71
53512;BMP280;39392;52.832;13.816;2022-08-01T05:44:26;101038.31;;;24.73
53512;BMP280;39392;52.832;13.816;2022-08-01T05:46:52;101039.16;;;24.74
53512;BMP280;39392;52.832;13.816;2022-08-01T05:49:19;101033.88;;;24.72
53512;BMP280;39392;52.832;13.816;2022-08-01T05:51:45;101034.72;;;24.73
53512;BMP280;39392;52.832;13.816;2022-08-01T05:54:12;101030.09;;;24.73
53512;BMP280;39392;52.832;13.816;2022-08-01T05:56:38;101035.56;;;24.73
53512;BMP280;39392;52.832;13.816;2022-08-01T05:59:05;101035.78;;;24.72
53512;BMP280;39392;52.832;13.816;2022-08-01T06:01:31;101046.53;;;24.73
53512;BMP280;39392;52.832;13.816;2022-08-01T06:03:58;101046.53;;;24.73
53512;BMP280;39392;52.832;13.816;2022-08-01T06:06:25;101036.63;;;24.72
53512;BMP280;39392;52.832;13.816;2022-08-01T06:08:51;101047.38;;;24.74
53512;BMP280;39392;52.832;13.816;2022-08-01T06:11:18;101059.19;;;24.74
53512;BMP280;39392;52.832;13.816;2022-08-01T06:13:44;101060.06;;;24.75
53512;BMP280;39392;52.832;13.816;2022-08-01T06:16:14;101060.91;;;24.75
53512;BMP280;39392;52.832;13.816;2022-08-01T06:18:41;101066.56;;;24.74
53512;BMP280;39392;52.832;13.816;2022-08-01T06:21:08;101067.00;;;24.71
53512;BMP280;39392;52.832;13.816;2022-08-01T06:23:34;101065.50;;;24.68
53512;BMP280;39392;52.832;13.816;2022-08-01T06:26:01;101067.41;;;24.68
53512;BMP280;39392;52.832;13.816;2022-08-01T06:28:27;101068.47;;;24.67
53512;BMP280;39392;52.832;13.816;2022-08-01T06:30:54;101074.97;;;24.66
53512;BMP280;39392;52.832;13.816;2022-08-01T06:33:20;101078.78;;;24.65
53512;BMP280;39392;52.832;13.816;2022-08-01T06:35:47;101076.03;;;24.65
53512;BMP280;39392;52.832;13.816;2022-08-01T06:38:13;101080.66;;;24.64
53512;BMP280;39392;52.832;13.816;2022-08-01T06:40:40;101074.34;;;24.64
53512;BMP280;39392;52.832;13.816;2022-08-01T06:43:06;101073.50;;;24.63
53512;BMP280;39392;52.832;13.816;2022-08-01T06:45:33;101077.09;;;24.64
53512;BMP280;39392;52.832;13.816;2022-08-01T06:48:02;101074.34;;;24.64
53512;BMP280;39392;52.832;13.816;2022-08-01T06:50:29;101068.88;;;24.64
53512;BMP280;39392;52.832;13.816;2022-08-01T06:52:55;101070.75;;;24.63
53512;BMP280;39392;52.832;13.816;2022-08-01T06:55:22;101069.72;;;24.64
53512;BMP280;39392;52.832;13.816;2022-08-01T06:57:49;101074.97;;;24.66
53512;BMP280;39392;52.832;13.816;2022-08-01T07:00:16;101072.22;;;24.66
53512;BMP280;39392;52.832;13.816;2022-08-01T07:02:46;101078.78;;;24.65
53512;BMP280;39392;52.832;13.816;2022-08-01T07:05:13;101075.19;;;24.64
53512;BMP280;39392;52.832;13.816;2022-08-01T07:07:39;101083.19;;;24.66
53512;BMP280;39392;52.832;13.816;2022-08-01T07:10:06;101076.03;;;24.65
53512;BMP280;39392;52.832;13.816;2022-08-01T07:12:35;101081.50;;;24.65
53512;BMP280;39392;52.832;13.816;2022-08-01T07:15:03;101083.41;;;24.64
53512;BMP280;39392;52.832;13.816;2022-08-01T07:17:30;101073.28;;;24.65
53512;BMP280;39392;52.832;13.816;2022-08-01T07:19:57;101076.03;;;24.65
53512;BMP280;39392;52.832;13.816;2022-08-01T07:22:23;101073.28;;;24.65
53512;BMP280;39392;52.832;13.816;2022-08-01T07:24:52;101066.13;;;24.64
53512;BMP280;39392;52.832;13.816;2022-08-01T07:27:19;101076.03;;;24.65
53512;BMP280;39392;52.832;13.816;2022-08-01T07:29:51;101068.88;;;24.64
53512;BMP280;39392;52.832;13.816;2022-08-01T07:32:18;101071.59;;;24.64
53512;BMP280;39392;52.832;13.816;2022-08-01T07:34:45;101069.72;;;24.64
53512;BMP280;39392;52.832;13.816;2022-08-01T07:37:11;101068.03;;;24.63
53512;BMP280;39392;52.832;13.816;2022-08-01T07:39:38;101069.06;;;24.62
53512;BMP280;39392;52.832;13.816;2022-08-01T07:42:05;101074.34;;;24.64
53512;BMP280;39392;52.832;13.816;2022-08-01T07:44:34;101084.47;;;24.63
53512;BMP280;39392;52.832;13.816;2022-08-01T07:47:00;101068.03;;;24.63
53512;BMP280;39392;52.832;13.816;2022-08-01T07:49:27;101075.41;;;24.63
53512;BMP280;39392;52.832;13.816;2022-08-01T07:51:54;101064.44;;;24.63
53512;BMP280;39392;52.832;13.816;2022-08-01T07:54:30;101073.50;;;24.63
53512;BMP280;39392;52.832;13.816;2022-08-01T07:56:59;101066.97;;;24.64
53512;BMP280;39392;52.832;13.816;2022-08-01T07:59:26;101070.75;;;24.63
53512;BMP280;39392;52.832;13.816;2022-08-01T08:01:55;101071.38;;;24.65
53512;BMP280;39392;52.832;13.816;2022-08-01T08:04:22;101077.94;;;24.64
53512;BMP280;39392;52.832;13.816;2022-08-01T08:06:48;101078.78;;;24.65
53512;BMP280;39392;52.832;13.816;2022-08-01T08:09:15;101083.19;;;24.66
53512;BMP280;39392;52.832;13.816;2022-08-01T08:11:43;101092.47;;;24.65
53512;BMP280;39392;52.832;13.816;2022-08-01T08:14:13;101094.16;;;24.66
53512;BMP280;39392;52.832;13.816;2022-08-01T08:16:39;101093.31;;;24.65
53512;BMP280;39392;52.832;13.816;2022-08-01T08:19:06;101096.28;;;24.64
53512;BMP280;39392;52.832;13.816;2022-08-01T08:21:32;101108.91;;;24.65
53512;BMP280;39392;52.832;13.816;2022-08-01T08:23:59;101104.28;;;24.65
53512;BMP280;39392;52.832;13.816;2022-08-01T08:26:44;101103.00;;;24.61
53512;BMP280;39392;52.832;13.816;2022-08-01T08:29:11;101104.28;;;24.65
53512;BMP280;39392;52.832;13.816;2022-08-01T08:31:37;101102.19;;;24.67
53512;BMP280;39392;52.832;13.816;2022-08-01T08:34:18;101102.81;;;24.69
53512;BMP280;39392;52.832;13.816;2022-08-01T08:36:44;101104.50;;;24.70
53512;BMP280;39392;52.832;13.816;2022-08-01T08:39:13;101106.41;;;24.70
53512;BMP280;39392;52.832;13.816;2022-08-01T08:41:40;101111.88;;;24.70
53512;BMP280;39392;52.832;13.816;2022-08-01T08:44:07;101115.47;;;24.70
53512;BMP280;39392;52.832;13.816;2022-08-01T08:46:43;101114.63;;;24.70
53512;BMP280;39392;52.832;13.816;2022-08-01T08:49:10;101124.56;;;24.71
53512;BMP280;39392;52.832;13.816;2022-08-01T08:51:41;101122.66;;;24.71
53512;BMP280;39392;52.832;13.816;2022-08-01T08:54:09;101117.38;;;24.70
53512;BMP280;39392;52.832;13.816;2022-08-01T08:56:36;101116.53;;;24.69
53512;BMP280;39392;52.832;13.816;2022-08-01T08:59:03;101120.94;;;24.70
53512;BMP280;39392;52.832;13.816;2022-08-01T09:01:31;101120.94;;;24.70
53512;BMP280;39392;52.832;13.816;2022-08-01T09:03:59;101120.09;;;24.70
53512;BMP280;39392;52.832;13.816;2022-08-01T09:06:25;101124.56;;;24.71
53512;BMP280;39392;52.832;13.816;2022-08-01T09:08:52;101120.94;;;24.70
53512;BMP280;39392;52.832;13.816;2022-08-01T09:11:20;101122.84;;;24.70
53512;BMP280;39392;52.832;13.816;2022-08-01T09:14:05;101123.69;;;24.70
53512;BMP280;39392;52.832;13.816;2022-08-01T09:16:32;101125.59;;;24.70
53512;BMP280;39392;52.832;13.816;2022-08-01T09:21:55;101131.91;;;24.70
53512;BMP280;39392;52.832;13.816;2022-08-01T09:24:24;101129.38;;;24.69
53512;BMP280;39392;52.832;13.816;2022-08-01T09:26:56;101140.34;;;24.69
53512;BMP280;39392;52.832;13.816;2022-08-01T09:29:24;101143.94;;;24.69
53512;BMP280;39392;52.832;13.816;2022-08-01T09:32:04;101138.44;;;24.69
53512;BMP280;39392;52.832;13.816;2022-08-01T09:34:32;101137.59;;;24.69
53512;BMP280;39392;52.832;13.816;2022-08-01T09:37:01;101145.00;;;24.68
53512;BMP280;39392;52.832;13.816;2022-08-01T09:39:29;101141.19;;;24.69
53512;BMP280;39392;52.832;13.816;2022-08-01T09:41:57;101141.41;;;24.68
53512;BMP280;39392;52.832;13.816;2022-08-01T09:44:45;101144.16;;;24.68
53512;BMP280;39392;52.832;13.816;2022-08-01T09:47:20;101147.72;;;24.68
53512;BMP280;39392;52.832;13.816;2022-08-01T09:49:54;101155.09;;;24.68
53512;BMP280;39392;52.832;13.816;2022-08-01T09:52:25;101153.22;;;24.68
53512;BMP280;39392;52.832;13.816;2022-08-01T09:54:59;101155.94;;;24.68
53512;BMP280;39392;52.832;13.816;2022-08-01T09:57:27;101157.84;;;24.68
53512;BMP280;39392;52.832;13.816;2022-08-01T09:59:55;101152.38;;;24.68
53512;BMP280;39392;52.832;13.816;2022-08-01T10:04:57;101143.31;;;24.67
53512;BMP280;39392;52.832;13.816;2022-08-01T10:07:34;101149.81;;;24.66
53512;BMP280;39392;52.832;13.816;2022-08-01T10:10:13;101156.16;;;24.67
53512;BMP280;39392;52.832;13.816;2022-08-01T10:12:41;101155.09;;;24.68
53512;BMP280;39392;52.832;13.816;2022-08-01T10:15:11;101157.00;;;24.67
53512;BMP280;39392;52.832;13.816;2022-08-01T10:17:40;101159.75;;;24.67
53512;BMP280;39392;52.832;13.816;2022-08-01T10:20:17;101167.97;;;24.67
53512;BMP280;39392;52.832;13.816;2022-08-01T10:22:57;101169.88;;;24.67
53512;BMP280;39392;52.832;13.816;2022-08-01T10:25:27;101172.63;;;24.67
53512;BMP280;39392;52.832;13.816;2022-08-01T10:28:13;101178.94;;;24.67
53512;BMP280;39392;52.832;13.816;2022-08-01T10:30:45;101182.69;;;24.66
53512;BMP280;39392;52.832;13.816;2022-08-01T10:33:14;101178.09;;;24.67
53512;BMP280;39392;52.832;13.816;2022-08-01T10:36:01;101177.03;;;24.68
53512;BMP280;39392;52.832;13.816;2022-08-01T10:38:34;101186.31;;;24.67
53512;BMP280;39392;52.832;13.816;2022-08-01T10:41:00;101180.84;;;24.67
53512;BMP280;39392;52.832;13.816;2022-08-01T10:43:33;101189.06;;;24.67
53512;BMP280;39392;52.832;13.816;2022-08-01T10:46:01;101184.41;;;24.67
53512;BMP280;39392;52.832;13.816;2022-08-01T10:48:29;101189.06;;;24.67
53512;BMP280;39392;52.832;13.816;2022-08-01T10:50:58;101183.56;;;24.67
53512;BMP280;39392;52.832;13.816;2022-08-01T10:53:26;101186.31;;;24.67
53512;BMP280;39392;52.832;13.816;2022-08-01T10:58:36;101186.31;;;24.67
53512;BMP280;39392;52.832;13.816;2022-08-01T11:04:04;101185.44;;;24.66
53512;BMP280;39392;52.832;13.816;2022-08-01T11:09:01;101200.03;;;24.67
53512;BMP280;39392;52.832;13.816;2022-08-01T11:11:31;101198.13;;;24.67
53512;BMP280;39392;52.832;13.816;2022-08-01T11:14:03;101197.28;;;24.67
53512;BMP280;39392;52.832;13.816;2022-08-01T11:16:36;101201.03;;;24.66
53512;BMP280;39392;52.832;13.816;2022-08-01T11:19:03;101209.09;;;24.67
53512;BMP280;39392;52.832;13.816;2022-08-01T11:21:57;101202.75;;;24.67
53512;BMP280;39392;52.832;13.816;2022-08-01T11:27:16;101217.31;;;24.67
53512;BMP280;39392;52.832;13.816;2022-08-01T11:32:33;101217.50;;;24.66
53512;BMP280;39392;52.832;13.816;2022-08-01T11:35:20;101217.31;;;24.67
53512;BMP280;39392;52.832;13.816;2022-08-01T11:37:47;101210.97;;;24.67
53512;BMP280;39392;52.832;13.816;2022-08-01T11:40:18;101216.47;;;24.67
53512;BMP280;39392;52.832;13.816;2022-08-01T11:42:48;101213.72;;;24.67
53512;BMP280;39392;52.832;13.816;2022-08-01T11:45:16;101214.56;;;24.67
53512;BMP280;39392;52.832;13.816;2022-08-01T11:50:34;101213.72;;;24.67
53512;BMP280;39392;52.832;13.816;2022-08-01T11:53:05;101223.81;;;24.66
53512;BMP280;39392;52.832;13.816;2022-08-01T11:55:32;101231.00;;;24.67
53512;BMP280;39392;52.832;13.816;2022-08-01T11:58:02;101221.94;;;24.67
53512;BMP280;39392;52.832;13.816;2022-08-01T12:00:29;101224.69;;;24.67
53512;BMP280;39392;52.832;13.816;2022-08-01T12:03:00;101231.84;;;24.68
53512;BMP280;39392;52.832;13.816;2022-08-01T12:05:30;101226.38;;;24.68
53512;BMP280;39392;52.832;13.816;2022-08-01T12:07:59;101231.84;;;24.68
53512;BMP280;39392;52.832;13.816;2022-08-01T12:10:28;101241.13;;;24.67
53512;BMP280;39392;52.832;13.816;2022-08-01T12:13:00;101240.06;;;24.68
53512;BMP280;39392;52.832;13.816;2022-08-01T12:15:31;101240.91;;;24.68
53512;BMP280;39392;52.832;13.816;2022-08-01T12:18:00;101243.22;;;24.65
53512;BMP280;39392;52.832;13.816;2022-08-01T12:20:29;101242.81;;;24.68
53512;BMP280;39392;52.832;13.816;2022-08-01T12:22:57;101247.25;;;24.69
53512;BMP280;39392;52.832;13.816;2022-08-01T12:25:24;101241.97;;;24.67
53512;BMP280;39392;52.832;13.816;2022-08-01T12:27:52;101247.47;;;24.67
53512;BMP280;39392;52.832;13.816;2022-08-01T12:30:22;101243.66;;;24.68
53512;BMP280;39392;52.832;13.816;2022-08-01T12:32:51;101245.94;;;24.65
53512;BMP280;39392;52.832;13.816;2022-08-01T12:35:19;101247.63;;;24.66
53512;BMP280;39392;52.832;13.816;2022-08-01T12:37:49;101256.53;;;24.68
53512;BMP280;39392;52.832;13.816;2022-08-01T12:42:44;101253.78;;;24.68
53512;BMP280;39392;52.832;13.816;2022-08-01T12:45:12;101258.22;;;24.69
53512;BMP280;39392;52.832;13.816;2022-08-01T12:47:39;101257.38;;;24.68
53512;BMP280;39392;52.832;13.816;2022-08-01T12:50:07;101263.69;;;24.69
53512;BMP280;39392;52.832;13.816;2022-08-01T12:52:34;101262.84;;;24.68
53512;BMP280;39392;52.832;13.816;2022-08-01T12:55:02;101254.84;;;24.67
53512;BMP280;39392;52.832;13.816;2022-08-01T12:57:35;101261.16;;;24.67
53512;BMP280;39392;52.832;13.816;2022-08-01T13:00:10;101259.25;;;24.68
53512;BMP280;39392;52.832;13.816;2022-08-01T13:02:37;101254.84;;;24.67
53512;BMP280;39392;52.832;13.816;2022-08-01T13:05:05;101265.81;;;24.67
53512;BMP280;39392;52.832;13.816;2022-08-01T13:07:39;101255.03;;;24.65
53512;BMP280;39392;52.832;13.816;2022-08-01T13:10:11;101259.44;;;24.66
53512;BMP280;39392;52.832;13.816;2022-08-01T13:12:38;101255.03;;;24.65
53512;BMP280;39392;52.832;13.816;2022-08-01T13:15:19;101256.91;;;24.65
53512;BMP280;39392;52.832;13.816;2022-08-01T13:17:45;101261.16;;;24.67
53512;BMP280;39392;52.832;13.816;2022-08-01T13:20:25;101265.59;;;24.68
53512;BMP280;39392;52.832;13.816;2022-08-01T13:22:52;101258.41;;;24.67
53512;BMP280;39392;52.832;13.816;2022-08-01T13:25:19;101265.81;;;24.67
53512;BMP280;39392;52.832;13.816;2022-08-01T13:27:48;101264.75;;;24.68
53512;BMP280;39392;52.832;13.816;2022-08-01T13:30:19;101261.16;;;24.67
53512;BMP280;39392;52.832;13.816;2022-08-01T13:32:58;101263.91;;;24.67
53512;BMP280;39392;52.832;13.816;2022-08-01T13:35:25;101261.16;;;24.67
53512;BMP280;39392;52.832;13.816;2022-08-01T13:37:51;101255.69;;;24.67
53512;BMP280;39392;52.832;13.816;2022-08-01T13:40:25;101264.94;;;24.66
53512;BMP280;39392;52.832;13.816;2022-08-01T13:42:55;101260.31;;;24.67
53512;BMP280;39392;52.832;13.816;2022-08-01T13:45:23;101262.19;;;24.66
53512;BMP280;39392;52.832;13.816;2022-08-01T13:47:51;101263.06;;;24.67
53512;BMP280;39392;52.832;13.816;2022-08-01T13:50:38;101267.66;;;24.66
53512;BMP280;39392;52.832;13.816;2022-08-01T13:53:04;101265.81;;;24.67
53512;BMP280;39392;52.832;13.816;2022-08-01T13:55:31;101272.13;;;24.67
53512;BMP280;39392;52.832;13.816;2022-08-01T13:58:00;101272.97;;;24.68
53512;BMP280;39392;52.832;13.816;2022-08-01T14:00:27;101269.38;;;24.67
53512;BMP280;39392;52.832;13.816;2022-08-01T14:02:53;101269.38;;;24.67
53512;BMP280;39392;52.832;13.816;2022-08-01T14:05:20;101279.28;;;24.68
53512;BMP280;39392;52.832;13.816;2022-08-01T14:07:46;101278.44;;;24.68
53512;BMP280;39392;52.832;13.816;2022-08-01T14:10:14;101283.94;;;24.68
53512;BMP280;39392;52.832;13.816;2022-08-01T14:12:48;101290.47;;;24.67
53512;BMP280;39392;52.832;13.816;2022-08-01T14:15:16;101300.38;;;24.68
53512;BMP280;39392;52.832;13.816;2022-08-01T14:18:03;101305.00;;;24.67
53512;BMP280;39392;52.832;13.816;2022-08-01T14:20:31;101302.28;;;24.67
53512;BMP280;39392;52.832;13.816;2022-08-01T14:22:58;101308.59;;;24.68
53512;BMP280;39392;52.832;13.816;2022-08-01T14:25:25;101312.19;;;24.68
53512;BMP280;39392;52.832;13.816;2022-08-01T14:28:11;101310.50;;;24.67
53512;BMP280;39392;52.832;13.816;2022-08-01T14:30:38;101301.22;;;24.68
53512;BMP280;39392;52.832;13.816;2022-08-01T14:33:04;101312.19;;;24.68
53512;BMP280;39392;52.832;13.816;2022-08-01T14:35:31;101309.44;;;24.68